sensor_id;sensor_type;location;lat;lon;timestamp;temperature;humidity
4050;DHT22;2039;50.894;6.888;2022-07-25T00:00:08;25.00;20.20
4050;DHT22;2039;50.894;6.888;2022-07-25T00:02:35;25.00;21.30
4050;DHT22;2039;50.894;6.888;2022-07-25T00:05:00;25.00;22.10
4050;DHT22;2039;50.894;6.888;2022-07-25T00:07:26;24.90;21.20
4050;DHT22;2039;50.894;6.888;2022-07-25T00:09:52;24.90;22.50
4050;DHT22;2039;50.894;6.888;2022-07-25T00:12:19;24.90;22.50
4050;DHT22;2039;50.894;6.888;2022-07-25T00:14:45;24.80;23.10
4050;DHT22;2039;50.894;6.888;2022-07-25T00:17:11;24.80;22.80
4050;DHT22;2039;50.894;6.888;2022-07-25T00:19:37;24.80;22.50
4050;DHT22;2039;50.894;6.888;2022-07-25T00:22:03;24.70;22.30
4050;DHT22;2039;50.894;6.888;2022-07-25T00:24:28;24.70;22.50
4050;DHT22;2039;50.894;6.888;2022-07-25T00:26:54;24.60;23.00
4050;DHT22;2039;50.894;6.888;2022-07-25T00:29:20;24.60;24.30
4050;DHT22;2039;50.894;6.888;2022-07-25T00:31:46;24.50;25.60
4050;DHT22;2039;50.894;6.888;2022-07-25T00:34:11;24.50;26.30
4050;DHT22;2039;50.894;6.888;2022-07-25T00:36:37;24.40;24.70
4050;DHT22;2039;50.894;6.888;2022-07-25T00:39:03;24.40;25.40
4050;DHT22;2039;50.894;6.888;2022-07-25T00:41:29;24.40;26.30
4050;DHT22;2039;50.894;6.888;2022-07-25T00:43:55;24.40;26.70
4050;DHT22;2039;50.894;6.888;2022-07-25T00:46:21;24.20;24.70
4050;DHT22;2039;50.894;6.888;2022-07-25T00:48:46;24.00;27.10
4050;DHT22;2039;50.894;6.888;2022-07-25T00:51:12;23.80;26.40
4050;DHT22;2039;50.894;6.888;2022-07-25T00:53:39;23.70;29.10
4050;DHT22;2039;50.894;6.888;2022-07-25T00:56:06;23.70;27.20
4050;DHT22;2039;50.894;6.888;2022-07-25T00:58:32;23.60;27.50
4050;DHT22;2039;50.894;6.888;2022-07-25T01:00:58;23.60;27.20
4050;DHT22;2039;50.894;6.888;2022-07-25T01:03:24;23.60;26.80
4050;DHT22;2039;50.894;6.888;2022-07-25T01:05:53;23.60;27.50
4050;DHT22;2039;50.894;6.888;2022-07-25T01:08:20;23.60;25.90
4050;DHT22;2039;50.894;6.888;2022-07-25T01:10:47;23.60;24.80
4050;DHT22;2039;50.894;6.888;2022-07-25T01:13:13;23.70;24.20
4050;DHT22;2039;50.894;6.888;2022-07-25T01:15:38;23.70;24.10
4050;DHT22;2039;50.894;6.888;2022-07-25T01:18:04;23.80;24.20
4050;DHT22;2039;50.894;6.888;2022-07-25T01:20:31;24.00;24.20
4050;DHT22;2039;50.894;6.888;2022-07-25T01:22:58;24.00;23.10
4050;DHT22;2039;50.894;6.888;2022-07-25T01:25:25;24.00;23.00
4050;DHT22;2039;50.894;6.888;2022-07-25T01:27:51;24.00;23.40
4050;DHT22;2039;50.894;6.888;2022-07-25T01:30:18;24.00;22.40
4050;DHT22;2039;50.894;6.888;2022-07-25T01:32:44;24.00;22.70
4050;DHT22;2039;50.894;6.888;2022-07-25T01:35:11;24.00;22.50
4050;DHT22;2039;50.894;6.888;2022-07-25T01:37:37;24.00;23.60
4050;DHT22;2039;50.894;6.888;2022-07-25T01:40:04;24.00;23.90
4050;DHT22;2039;50.894;6.888;2022-07-25T01:42:30;23.90;24.10
4050;DHT22;2039;50.894;6.888;2022-07-25T01:44:56;23.90;25.30
4050;DHT22;2039;50.894;6.888;2022-07-25T01:47:25;23.90;26.20
4050;DHT22;2039;50.894;6.888;2022-07-25T01:49:51;23.80;27.20
4050;DHT22;2039;50.894;6.888;2022-07-25T01:52:17;23.80;27.50
4050;DHT22;2039;50.894;6.888;2022-07-25T01:54:45;23.80;27.70
4050;DHT22;2039;50.894;6.888;2022-07-25T01:57:11;23.80;28.20
4050;DHT22;2039;50.894;6.888;2022-07-25T01:59:39;23.80;28.60
4050;DHT22;2039;50.894;6.888;2022-07-25T02:02:06;23.70;28.70
4050;DHT22;2039;50.894;6.888;2022-07-25T02:04:33;23.60;29.30
4050;DHT22;2039;50.894;6.888;2022-07-25T02:06:59;23.70;28.90
4050;DHT22;2039;50.894;6.888;2022-07-25T02:09:25;23.60;27.90
4050;DHT22;2039;50.894;6.888;2022-07-25T02:11:53;23.60;29.90
4050;DHT22;2039;50.894;6.888;2022-07-25T02:14:19;23.60;29.00
4050;DHT22;2039;50.894;6.888;2022-07-25T02:16:45;23.70;28.10
4050;DHT22;2039;50.894;6.888;2022-07-25T02:19:11;23.60;27.60
4050;DHT22;2039;50.894;6.888;2022-07-25T02:21:37;23.60;28.50
4050;DHT22;2039;50.894;6.888;2022-07-25T02:24:03;23.60;28.20
4050;DHT22;2039;50.894;6.888;2022-07-25T02:26:28;23.50;28.70
4050;DHT22;2039;50.894;6.888;2022-07-25T02:28:54;23.50;28.80
4050;DHT22;2039;50.894;6.888;2022-07-25T02:31:20;23.50;28.20
4050;DHT22;2039;50.894;6.888;2022-07-25T02:33:45;23.50;27.30
4050;DHT22;2039;50.894;6.888;2022-07-25T02:36:11;23.30;30.00
4050;DHT22;2039;50.894;6.888;2022-07-25T02:38:37;23.30;30.60
4050;DHT22;2039;50.894;6.888;2022-07-25T02:41:03;23.30;31.30
4050;DHT22;2039;50.894;6.888;2022-07-25T02:43:29;23.30;31.00
4050;DHT22;2039;50.894;6.888;2022-07-25T02:45:55;23.30;31.60
4050;DHT22;2039;50.894;6.888;2022-07-25T02:48:21;23.40;31.50
4050;DHT22;2039;50.894;6.888;2022-07-25T02:50:47;23.30;30.70
4050;DHT22;2039;50.894;6.888;2022-07-25T02:53:13;23.30;32.40
4050;DHT22;2039;50.894;6.888;2022-07-25T02:55:38;23.30;32.40
4050;DHT22;2039;50.894;6.888;2022-07-25T02:58:04;23.30;32.50
4050;DHT22;2039;50.894;6.888;2022-07-25T03:00:30;23.30;32.80
4050;DHT22;2039;50.894;6.888;2022-07-25T03:02:56;23.20;31.90
4050;DHT22;2039;50.894;6.888;2022-07-25T03:05:23;23.20;32.60
4050;DHT22;2039;50.894;6.888;2022-07-25T03:07:48;23.20;31.90
4050;DHT22;2039;50.894;6.888;2022-07-25T03:10:14;23.10;32.80
4050;DHT22;2039;50.894;6.888;2022-07-25T03:12:41;23.10;32.90
4050;DHT22;2039;50.894;6.888;2022-07-25T03:15:09;23.10;32.60
4050;DHT22;2039;50.894;6.888;2022-07-25T03:17:36;23.10;33.00
4050;DHT22;2039;50.894;6.888;2022-07-25T03:20:02;23.00;34.80
4050;DHT22;2039;50.894;6.888;2022-07-25T03:22:27;23.00;34.30
4050;DHT22;2039;50.894;6.888;2022-07-25T03:24:53;23.00;33.70
4050;DHT22;2039;50.894;6.888;2022-07-25T03:27:19;23.00;32.30
4050;DHT22;2039;50.894;6.888;2022-07-25T03:29:45;23.00;33.30
4050;DHT22;2039;50.894;6.888;2022-07-25T03:32:11;23.00;33.30
4050;DHT22;2039;50.894;6.888;2022-07-25T03:34:36;22.90;33.70
4050;DHT22;2039;50.894;6.888;2022-07-25T03:37:02;22.90;31.20
4050;DHT22;2039;50.894;6.888;2022-07-25T03:39:31;22.70;34.10
4050;DHT22;2039;50.894;6.888;2022-07-25T03:42:00;22.80;36.10
4050;DHT22;2039;50.894;6.888;2022-07-25T03:44:26;22.70;34.90
4050;DHT22;2039;50.894;6.888;2022-07-25T03:46:51;22.80;35.10
4050;DHT22;2039;50.894;6.888;2022-07-25T03:49:17;22.80;34.60
4050;DHT22;2039;50.894;6.888;2022-07-25T03:51:43;22.70;34.40
4050;DHT22;2039;50.894;6.888;2022-07-25T03:54:09;22.70;35.60
4050;DHT22;2039;50.894;6.888;2022-07-25T03:56:41;22.60;35.40
4050;DHT22;2039;50.894;6.888;2022-07-25T03:59:08;22.60;38.30
4050;DHT22;2039;50.894;6.888;2022-07-25T04:01:34;22.60;38.00
4050;DHT22;2039;50.894;6.888;2022-07-25T04:04:00;22.70;37.20
4050;DHT22;2039;50.894;6.888;2022-07-25T04:06:26;22.70;37.80
4050;DHT22;2039;50.894;6.888;2022-07-25T04:08:53;22.70;37.70
4050;DHT22;2039;50.894;6.888;2022-07-25T04:11:19;22.70;38.30
4050;DHT22;2039;50.894;6.888;2022-07-25T04:13:45;22.60;38.70
4050;DHT22;2039;50.894;6.888;2022-07-25T04:16:11;22.70;39.40
4050;DHT22;2039;50.894;6.888;2022-07-25T04:18:37;22.70;39.70
4050;DHT22;2039;50.894;6.888;2022-07-25T04:21:04;22.70;40.60
4050;DHT22;2039;50.894;6.888;2022-07-25T04:23:30;22.80;40.30
4050;DHT22;2039;50.894;6.888;2022-07-25T04:25:56;22.60;41.10
4050;DHT22;2039;50.894;6.888;2022-07-25T04:28:23;22.50;40.60
4050;DHT22;2039;50.894;6.888;2022-07-25T04:30:49;22.40;44.40
4050;DHT22;2039;50.894;6.888;2022-07-25T04:33:15;22.40;45.30
4050;DHT22;2039;50.894;6.888;2022-07-25T04:35:42;22.30;47.40
4050;DHT22;2039;50.894;6.888;2022-07-25T04:38:07;22.30;48.40
4050;DHT22;2039;50.894;6.888;2022-07-25T04:40:33;22.40;47.20
4050;DHT22;2039;50.894;6.888;2022-07-25T04:42:59;22.30;49.00
4050;DHT22;2039;50.894;6.888;2022-07-25T04:45:25;22.30;46.90
4050;DHT22;2039;50.894;6.888;2022-07-25T04:47:51;22.30;47.70
4050;DHT22;2039;50.894;6.888;2022-07-25T04:50:16;22.50;49.80
4050;DHT22;2039;50.894;6.888;2022-07-25T04:52:42;23.00;50.40
4050;DHT22;2039;50.894;6.888;2022-07-25T04:55:08;23.30;44.20
4050;DHT22;2039;50.894;6.888;2022-07-25T04:57:34;23.70;33.60
4050;DHT22;2039;50.894;6.888;2022-07-25T05:00:02;24.10;29.70
4050;DHT22;2039;50.894;6.888;2022-07-25T05:02:28;24.50;25.40
4050;DHT22;2039;50.894;6.888;2022-07-25T05:04:53;24.50;15.20
4050;DHT22;2039;50.894;6.888;2022-07-25T05:07:19;24.30;14.00
4050;DHT22;2039;50.894;6.888;2022-07-25T05:09:46;24.20;16.10
4050;DHT22;2039;50.894;6.888;2022-07-25T05:12:11;24.10;16.40
4050;DHT22;2039;50.894;6.888;2022-07-25T05:14:37;24.00;17.00
4050;DHT22;2039;50.894;6.888;2022-07-25T05:17:03;23.80;19.60
4050;DHT22;2039;50.894;6.888;2022-07-25T05:19:29;23.80;19.20
4050;DHT22;2039;50.894;6.888;2022-07-25T05:21:54;23.70;19.20
4050;DHT22;2039;50.894;6.888;2022-07-25T05:24:20;23.80;17.00
4050;DHT22;2039;50.894;6.888;2022-07-25T05:26:47;23.80;16.60
4050;DHT22;2039;50.894;6.888;2022-07-25T05:29:13;23.80;16.90
4050;DHT22;2039;50.894;6.888;2022-07-25T05:31:39;23.70;17.80
4050;DHT22;2039;50.894;6.888;2022-07-25T05:34:05;23.80;18.30
4050;DHT22;2039;50.894;6.888;2022-07-25T05:36:30;23.70;19.40
4050;DHT22;2039;50.894;6.888;2022-07-25T05:38:56;23.70;19.80
4050;DHT22;2039;50.894;6.888;2022-07-25T05:41:22;23.60;20.40
4050;DHT22;2039;50.894;6.888;2022-07-25T05:43:47;23.60;24.90
4050;DHT22;2039;50.894;6.888;2022-07-25T05:46:14;23.50;23.60
4050;DHT22;2039;50.894;6.888;2022-07-25T05:48:40;23.60;24.60
4050;DHT22;2039;50.894;6.888;2022-07-25T05:51:06;23.50;24.90
4050;DHT22;2039;50.894;6.888;2022-07-25T05:53:32;23.60;29.60
4050;DHT22;2039;50.894;6.888;2022-07-25T05:55:58;23.70;27.10
4050;DHT22;2039;50.894;6.888;2022-07-25T05:58:24;23.80;30.00
4050;DHT22;2039;50.894;6.888;2022-07-25T06:00:50;23.80;33.30
4050;DHT22;2039;50.894;6.888;2022-07-25T06:03:17;23.80;32.70
4050;DHT22;2039;50.894;6.888;2022-07-25T06:05:43;23.80;34.60
4050;DHT22;2039;50.894;6.888;2022-07-25T06:08:09;23.80;40.30
4050;DHT22;2039;50.894;6.888;2022-07-25T06:10:35;23.80;41.80
4050;DHT22;2039;50.894;6.888;2022-07-25T06:13:01;23.80;39.70
4050;DHT22;2039;50.894;6.888;2022-07-25T06:15:29;23.90;42.40
4050;DHT22;2039;50.894;6.888;2022-07-25T06:17:55;23.90;47.80
4050;DHT22;2039;50.894;6.888;2022-07-25T06:20:21;24.00;37.20
4050;DHT22;2039;50.894;6.888;2022-07-25T06:22:47;24.10;39.50
4050;DHT22;2039;50.894;6.888;2022-07-25T06:25:13;24.10;24.50
4050;DHT22;2039;50.894;6.888;2022-07-25T06:27:39;24.30;27.40
4050;DHT22;2039;50.894;6.888;2022-07-25T06:30:06;24.40;27.70
4050;DHT22;2039;50.894;6.888;2022-07-25T06:32:32;24.50;26.90
4050;DHT22;2039;50.894;6.888;2022-07-25T06:34:58;24.70;28.10
4050;DHT22;2039;50.894;6.888;2022-07-25T06:37:24;24.80;24.20
4050;DHT22;2039;50.894;6.888;2022-07-25T06:39:50;24.90;22.20
4050;DHT22;2039;50.894;6.888;2022-07-25T06:42:16;25.00;20.80
4050;DHT22;2039;50.894;6.888;2022-07-25T06:44:42;25.10;19.60
4050;DHT22;2039;50.894;6.888;2022-07-25T06:47:08;25.20;19.30
4050;DHT22;2039;50.894;6.888;2022-07-25T06:49:41;25.30;17.20
4050;DHT22;2039;50.894;6.888;2022-07-25T06:52:07;25.40;17.20
4050;DHT22;2039;50.894;6.888;2022-07-25T06:54:33;25.40;19.90
4050;DHT22;2039;50.894;6.888;2022-07-25T06:56:58;25.60;19.80
4050;DHT22;2039;50.894;6.888;2022-07-25T06:59:24;25.70;21.90
4050;DHT22;2039;50.894;6.888;2022-07-25T07:01:50;25.70;24.00
4050;DHT22;2039;50.894;6.888;2022-07-25T07:04:16;25.80;23.60
4050;DHT22;2039;50.894;6.888;2022-07-25T07:06:42;25.80;22.10
4050;DHT22;2039;50.894;6.888;2022-07-25T07:09:09;25.80;26.50
4050;DHT22;2039;50.894;6.888;2022-07-25T07:11:34;26.00;33.60
4050;DHT22;2039;50.894;6.888;2022-07-25T07:14:01;26.10;33.10
4050;DHT22;2039;50.894;6.888;2022-07-25T07:16:30;26.10;22.10
4050;DHT22;2039;50.894;6.888;2022-07-25T07:18:56;26.20;29.30
4050;DHT22;2039;50.894;6.888;2022-07-25T07:21:23;26.20;31.00
4050;DHT22;2039;50.894;6.888;2022-07-25T07:23:49;26.30;45.30
4050;DHT22;2039;50.894;6.888;2022-07-25T07:26:15;26.40;14.10
4050;DHT22;2039;50.894;6.888;2022-07-25T07:28:41;26.50;18.10
4050;DHT22;2039;50.894;6.888;2022-07-25T07:31:07;26.70;19.10
4050;DHT22;2039;50.894;6.888;2022-07-25T07:33:33;26.80;14.00
4050;DHT22;2039;50.894;6.888;2022-07-25T07:36:00;26.90;7.00
4050;DHT22;2039;50.894;6.888;2022-07-25T07:38:26;27.00;7.10
4050;DHT22;2039;50.894;6.888;2022-07-25T07:40:52;27.20;9.60
4050;DHT22;2039;50.894;6.888;2022-07-25T07:43:19;27.40;31.60
4050;DHT22;2039;50.894;6.888;2022-07-25T07:45:45;27.40;24.30
4050;DHT22;2039;50.894;6.888;2022-07-25T07:48:11;27.60;41.00
4050;DHT22;2039;50.894;6.888;2022-07-25T07:50:37;27.60;22.20
4050;DHT22;2039;50.894;6.888;2022-07-25T07:53:03;27.70;17.60
4050;DHT22;2039;50.894;6.888;2022-07-25T07:55:29;27.80;1.00
4050;DHT22;2039;50.894;6.888;2022-07-25T07:58:12;28.00;7.60
4050;DHT22;2039;50.894;6.888;2022-07-25T08:00:40;28.00;4.70
4050;DHT22;2039;50.894;6.888;2022-07-25T08:03:07;28.10;7.90
4050;DHT22;2039;50.894;6.888;2022-07-25T08:05:36;28.20;1.00
4050;DHT22;2039;50.894;6.888;2022-07-25T08:08:03;28.30;1.00
4050;DHT22;2039;50.894;6.888;2022-07-25T08:10:32;28.30;1.00
4050;DHT22;2039;50.894;6.888;2022-07-25T08:13:00;28.20;1.00
4050;DHT22;2039;50.894;6.888;2022-07-25T08:15:26;28.10;1.00
4050;DHT22;2039;50.894;6.888;2022-07-25T08:17:51;28.10;1.00
4050;DHT22;2039;50.894;6.888;2022-07-25T08:20:18;28.00;1.00
4050;DHT22;2039;50.894;6.888;2022-07-25T08:22:46;28.10;1.00
4050;DHT22;2039;50.894;6.888;2022-07-25T08:25:14;28.00;1.00
4050;DHT22;2039;50.894;6.888;2022-07-25T08:27:39;28.00;1.00
4050;DHT22;2039;50.894;6.888;2022-07-25T08:30:07;28.00;1.00
4050;DHT22;2039;50.894;6.888;2022-07-25T08:32:33;28.00;1.00
4050;DHT22;2039;50.894;6.888;2022-07-25T08:34:59;27.90;1.00
4050;DHT22;2039;50.894;6.888;2022-07-25T08:37:27;28.00;1.00
4050;DHT22;2039;50.894;6.888;2022-07-25T08:39:53;28.00;1.00
4050;DHT22;2039;50.894;6.888;2022-07-25T08:42:19;27.90;1.00
4050;DHT22;2039;50.894;6.888;2022-07-25T08:44:57;27.90;1.00
4050;DHT22;2039;50.894;6.888;2022-07-25T08:47:23;27.90;1.00
4050;DHT22;2039;50.894;6.888;2022-07-25T08:49:48;27.80;1.00
4050;DHT22;2039;50.894;6.888;2022-07-25T08:52:15;27.80;1.00
4050;DHT22;2039;50.894;6.888;2022-07-25T08:54:41;28.00;1.00
4050;DHT22;2039;50.894;6.888;2022-07-25T08:57:07;28.00;1.00
4050;DHT22;2039;50.894;6.888;2022-07-25T08:59:33;28.10;1.00
4050;DHT22;2039;50.894;6.888;2022-07-25T09:01:58;28.00;1.00
4050;DHT22;2039;50.894;6.888;2022-07-25T09:04:28;28.10;1.00
4050;DHT22;2039;50.894;6.888;2022-07-25T09:06:55;28.10;1.00
4050;DHT22;2039;50.894;6.888;2022-07-25T09:09:32;28.00;1.00
4050;DHT22;2039;50.894;6.888;2022-07-25T09:11:58;28.00;1.00
4050;DHT22;2039;50.894;6.888;2022-07-25T09:14:24;28.10;1.00
4050;DHT22;2039;50.894;6.888;2022-07-25T09:16:50;28.10;1.00
4050;DHT22;2039;50.894;6.888;2022-07-25T09:19:21;28.20;1.00
4050;DHT22;2039;50.894;6.888;2022-07-25T09:22:04;28.30;1.00
4050;DHT22;2039;50.894;6.888;2022-07-25T09:24:30;28.40;1.00
4050;DHT22;2039;50.894;6.888;2022-07-25T09:26:59;28.60;1.00
4050;DHT22;2039;50.894;6.888;2022-07-25T09:29:28;28.70;1.00
4050;DHT22;2039;50.894;6.888;2022-07-25T09:31:55;28.80;1.00
4050;DHT22;2039;50.894;6.888;2022-07-25T09:34:41;29.00;1.00
4050;DHT22;2039;50.894;6.888;2022-07-25T09:37:09;29.20;1.00
4050;DHT22;2039;50.894;6.888;2022-07-25T09:47:27;29.60;1.00
4050;DHT22;2039;50.894;6.888;2022-07-25T09:49:53;29.40;1.00
4050;DHT22;2039;50.894;6.888;2022-07-25T09:52:19;29.20;1.00
4050;DHT22;2039;50.894;6.888;2022-07-25T09:54:45;29.00;1.00
4050;DHT22;2039;50.894;6.888;2022-07-25T09:57:10;28.90;1.00
4050;DHT22;2039;50.894;6.888;2022-07-25T09:59:37;28.70;1.00
4050;DHT22;2039;50.894;6.888;2022-07-25T10:08:07;28.10;1.00
4050;DHT22;2039;50.894;6.888;2022-07-25T10:10:40;27.90;1.00
4050;DHT22;2039;50.894;6.888;2022-07-25T10:18:08;27.40;1.00
4050;DHT22;2039;50.894;6.888;2022-07-25T10:20:34;27.20;1.00
4050;DHT22;2039;50.894;6.888;2022-07-25T10:23:00;26.90;1.00
4050;DHT22;2039;50.894;6.888;2022-07-25T10:25:26;26.70;1.00
4050;DHT22;2039;50.894;6.888;2022-07-25T10:27:54;26.60;1.00
4050;DHT22;2039;50.894;6.888;2022-07-25T10:30:34;26.60;1.00
4050;DHT22;2039;50.894;6.888;2022-07-25T10:33:02;26.60;1.00
4050;DHT22;2039;50.894;6.888;2022-07-25T10:35:29;26.60;3.80
4050;DHT22;2039;50.894;6.888;2022-07-25T10:37:57;26.70;5.90
4050;DHT22;2039;50.894;6.888;2022-07-25T10:40:43;26.90;6.90
4050;DHT22;2039;50.894;6.888;2022-07-25T10:45:43;27.30;1.00
4050;DHT22;2039;50.894;6.888;2022-07-25T10:48:20;27.20;1.00
4050;DHT22;2039;50.894;6.888;2022-07-25T10:53:32;27.30;1.00
4050;DHT22;2039;50.894;6.888;2022-07-25T11:01:28;27.50;1.00
4050;DHT22;2039;50.894;6.888;2022-07-25T11:03:59;27.60;1.00
4050;DHT22;2039;50.894;6.888;2022-07-25T11:06:39;27.80;1.00
4050;DHT22;2039;50.894;6.888;2022-07-25T11:09:26;28.20;1.00
4050;DHT22;2039;50.894;6.888;2022-07-25T11:11:54;28.30;1.00
4050;DHT22;2039;50.894;6.888;2022-07-25T11:14:23;28.40;1.00
4050;DHT22;2039;50.894;6.888;2022-07-25T11:16:51;28.50;1.00
4050;DHT22;2039;50.894;6.888;2022-07-25T11:19:22;28.70;1.00
4050;DHT22;2039;50.894;6.888;2022-07-25T11:21:56;28.50;1.00
4050;DHT22;2039;50.894;6.888;2022-07-25T11:24:36;28.50;1.00
4050;DHT22;2039;50.894;6.888;2022-07-25T11:27:03;28.50;1.00
4050;DHT22;2039;50.894;6.888;2022-07-25T11:29:29;28.40;1.00
4050;DHT22;2039;50.894;6.888;2022-07-25T11:32:00;28.40;1.00
4050;DHT22;2039;50.894;6.888;2022-07-25T11:34:34;28.30;1.00
4050;DHT22;2039;50.894;6.888;2022-07-25T11:37:02;28.30;1.00
4050;DHT22;2039;50.894;6.888;2022-07-25T11:39:30;28.30;1.00
4050;DHT22;2039;50.894;6.888;2022-07-25T11:44:37;28.50;1.00
4050;DHT22;2039;50.894;6.888;2022-07-25T11:47:05;28.70;1.00
4050;DHT22;2039;50.894;6.888;2022-07-25T11:49:42;28.80;1.00
4050;DHT22;2039;50.894;6.888;2022-07-25T11:52:21;28.90;1.00
4050;DHT22;2039;50.894;6.888;2022-07-25T11:55:13;29.10;1.00
4050;DHT22;2039;50.894;6.888;2022-07-25T11:57:42;29.40;1.00
4050;DHT22;2039;50.894;6.888;2022-07-25T12:00:17;29.30;1.00
4050;DHT22;2039;50.894;6.888;2022-07-25T12:02:44;28.90;1.00
4050;DHT22;2039;50.894;6.888;2022-07-25T12:05:12;28.70;1.00
4050;DHT22;2039;50.894;6.888;2022-07-25T12:07:51;28.50;1.00
4050;DHT22;2039;50.894;6.888;2022-07-25T12:10:30;28.50;1.00
4050;DHT22;2039;50.894;6.888;2022-07-25T12:12:57;28.40;1.00
4050;DHT22;2039;50.894;6.888;2022-07-25T12:15:31;28.40;1.00
4050;DHT22;2039;50.894;6.888;2022-07-25T12:17:57;28.50;1.00
4050;DHT22;2039;50.894;6.888;2022-07-25T12:20:29;28.40;1.00
4050;DHT22;2039;50.894;6.888;2022-07-25T12:22:58;28.40;1.00
4050;DHT22;2039;50.894;6.888;2022-07-25T12:25:26;28.50;1.00
4050;DHT22;2039;50.894;6.888;2022-07-25T12:27:53;28.30;1.00
4050;DHT22;2039;50.894;6.888;2022-07-25T12:30:19;28.20;1.00
4050;DHT22;2039;50.894;6.888;2022-07-25T12:32:44;28.40;1.00
4050;DHT22;2039;50.894;6.888;2022-07-25T12:35:12;28.80;1.00
4050;DHT22;2039;50.894;6.888;2022-07-25T12:37:39;29.20;1.00
4050;DHT22;2039;50.894;6.888;2022-07-25T12:40:06;29.60;1.00
4050;DHT22;2039;50.894;6.888;2022-07-25T12:42:33;30.00;1.00
4050;DHT22;2039;50.894;6.888;2022-07-25T12:44:59;30.10;1.00
4050;DHT22;2039;50.894;6.888;2022-07-25T12:47:26;30.20;1.00
4050;DHT22;2039;50.894;6.888;2022-07-25T12:49:52;30.30;1.00
4050;DHT22;2039;50.894;6.888;2022-07-25T12:52:18;30.50;1.00
4050;DHT22;2039;50.894;6.888;2022-07-25T12:54:44;30.80;1.00
4050;DHT22;2039;50.894;6.888;2022-07-25T12:57:10;30.50;1.00
4050;DHT22;2039;50.894;6.888;2022-07-25T12:59:36;30.20;1.00
4050;DHT22;2039;50.894;6.888;2022-07-25T13:02:03;30.30;1.00
4050;DHT22;2039;50.894;6.888;2022-07-25T13:04:29;30.30;1.00
4050;DHT22;2039;50.894;6.888;2022-07-25T13:06:55;30.10;1.00
4050;DHT22;2039;50.894;6.888;2022-07-25T13:09:21;30.00;1.00
4050;DHT22;2039;50.894;6.888;2022-07-25T13:11:48;29.90;1.00
4050;DHT22;2039;50.894;6.888;2022-07-25T13:14:14;29.90;1.00
4050;DHT22;2039;50.894;6.888;2022-07-25T13:16:41;29.80;1.00
4050;DHT22;2039;50.894;6.888;2022-07-25T13:19:07;30.00;1.00
4050;DHT22;2039;50.894;6.888;2022-07-25T13:21:33;30.20;1.00
4050;DHT22;2039;50.894;6.888;2022-07-25T13:23:59;30.50;1.00
4050;DHT22;2039;50.894;6.888;2022-07-25T13:26:24;30.90;1.00
4050;DHT22;2039;50.894;6.888;2022-07-25T13:28:50;30.80;1.00
4050;DHT22;2039;50.894;6.888;2022-07-25T13:31:17;30.90;1.00
4050;DHT22;2039;50.894;6.888;2022-07-25T13:33:44;31.00;1.00
4050;DHT22;2039;50.894;6.888;2022-07-25T13:36:11;31.10;1.00
4050;DHT22;2039;50.894;6.888;2022-07-25T13:38:36;31.00;1.00
4050;DHT22;2039;50.894;6.888;2022-07-25T13:41:06;30.80;1.00
4050;DHT22;2039;50.894;6.888;2022-07-25T13:43:32;30.80;1.00
4050;DHT22;2039;50.894;6.888;2022-07-25T13:45:58;30.80;1.00
4050;DHT22;2039;50.894;6.888;2022-07-25T13:48:24;30.80;1.00
4050;DHT22;2039;50.894;6.888;2022-07-25T13:50:50;30.80;1.00
4050;DHT22;2039;50.894;6.888;2022-07-25T13:53:16;31.00;1.00
4050;DHT22;2039;50.894;6.888;2022-07-25T13:55:41;30.90;1.00
4050;DHT22;2039;50.894;6.888;2022-07-25T13:58:07;30.60;1.00
4050;DHT22;2039;50.894;6.888;2022-07-25T14:00:33;30.40;1.00
4050;DHT22;2039;50.894;6.888;2022-07-25T14:02:59;30.20;1.00
4050;DHT22;2039;50.894;6.888;2022-07-25T14:05:25;30.20;1.00
4050;DHT22;2039;50.894;6.888;2022-07-25T14:07:51;30.30;1.00
4050;DHT22;2039;50.894;6.888;2022-07-25T14:10:17;30.40;1.00
4050;DHT22;2039;50.894;6.888;2022-07-25T14:12:43;30.50;1.00
4050;DHT22;2039;50.894;6.888;2022-07-25T14:15:09;30.70;1.00
4050;DHT22;2039;50.894;6.888;2022-07-25T14:17:35;30.40;1.00
4050;DHT22;2039;50.894;6.888;2022-07-25T14:20:04;30.30;1.00
4050;DHT22;2039;50.894;6.888;2022-07-25T14:22:29;30.30;1.00
4050;DHT22;2039;50.894;6.888;2022-07-25T14:24:55;30.30;1.00
4050;DHT22;2039;50.894;6.888;2022-07-25T14:27:21;30.40;1.00
4050;DHT22;2039;50.894;6.888;2022-07-25T14:29:47;30.60;1.00
4050;DHT22;2039;50.894;6.888;2022-07-25T14:32:12;30.40;1.00
4050;DHT22;2039;50.894;6.888;2022-07-25T14:34:38;30.00;1.00
4050;DHT22;2039;50.894;6.888;2022-07-25T14:37:07;29.70;1.00
4050;DHT22;2039;50.894;6.888;2022-07-25T14:39:33;29.60;1.00
4050;DHT22;2039;50.894;6.888;2022-07-25T14:41:59;29.60;1.00
4050;DHT22;2039;50.894;6.888;2022-07-25T14:44:25;29.40;1.00
4050;DHT22;2039;50.894;6.888;2022-07-25T14:46:55;29.20;1.00
4050;DHT22;2039;50.894;6.888;2022-07-25T14:49:25;29.00;1.00
4050;DHT22;2039;50.894;6.888;2022-07-25T14:51:53;28.70;1.00
4050;DHT22;2039;50.894;6.888;2022-07-25T14:54:19;28.40;1.00
4050;DHT22;2039;50.894;6.888;2022-07-25T14:56:45;28.30;1.00
4050;DHT22;2039;50.894;6.888;2022-07-25T14:59:10;28.30;1.00
4050;DHT22;2039;50.894;6.888;2022-07-25T15:01:37;28.10;1.00
4050;DHT22;2039;50.894;6.888;2022-07-25T15:04:04;28.00;1.00
4050;DHT22;2039;50.894;6.888;2022-07-25T15:06:30;28.00;1.00
4050;DHT22;2039;50.894;6.888;2022-07-25T15:08:56;27.90;1.00
4050;DHT22;2039;50.894;6.888;2022-07-25T15:11:22;27.80;1.00
4050;DHT22;2039;50.894;6.888;2022-07-25T15:13:49;27.80;1.00
4050;DHT22;2039;50.894;6.888;2022-07-25T15:16:15;27.80;1.00
4050;DHT22;2039;50.894;6.888;2022-07-25T15:18:42;27.70;1.00
4050;DHT22;2039;50.894;6.888;2022-07-25T15:21:10;27.70;1.00
4050;DHT22;2039;50.894;6.888;2022-07-25T15:23:36;27.70;1.00
4050;DHT22;2039;50.894;6.888;2022-07-25T15:26:03;27.60;1.00
4050;DHT22;2039;50.894;6.888;2022-07-25T15:28:33;27.50;1.00
4050;DHT22;2039;50.894;6.888;2022-07-25T15:30:59;27.50;1.00
4050;DHT22;2039;50.894;6.888;2022-07-25T15:33:25;27.40;1.00
4050;DHT22;2039;50.894;6.888;2022-07-25T15:35:51;27.40;1.00
4050;DHT22;2039;50.894;6.888;2022-07-25T15:38:17;27.40;1.00
4050;DHT22;2039;50.894;6.888;2022-07-25T15:40:44;27.20;1.00
4050;DHT22;2039;50.894;6.888;2022-07-25T15:43:10;27.40;1.00
4050;DHT22;2039;50.894;6.888;2022-07-25T15:45:37;27.40;1.00
4050;DHT22;2039;50.894;6.888;2022-07-25T15:48:05;27.40;1.00
4050;DHT22;2039;50.894;6.888;2022-07-25T15:50:33;27.40;1.00
4050;DHT22;2039;50.894;6.888;2022-07-25T15:52:59;27.30;1.00
4050;DHT22;2039;50.894;6.888;2022-07-25T15:55:25;27.10;1.00
4050;DHT22;2039;50.894;6.888;2022-07-25T15:57:51;26.90;1.00
4050;DHT22;2039;50.894;6.888;2022-07-25T16:00:18;26.80;1.00
4050;DHT22;2039;50.894;6.888;2022-07-25T16:02:44;26.70;1.00
4050;DHT22;2039;50.894;6.888;2022-07-25T16:05:11;26.70;1.00
4050;DHT22;2039;50.894;6.888;2022-07-25T16:07:37;26.70;1.00
4050;DHT22;2039;50.894;6.888;2022-07-25T16:10:04;26.50;1.00
4050;DHT22;2039;50.894;6.888;2022-07-25T16:12:30;26.50;1.00
4050;DHT22;2039;50.894;6.888;2022-07-25T16:14:55;26.50;1.00
4050;DHT22;2039;50.894;6.888;2022-07-25T16:17:21;26.60;1.00
4050;DHT22;2039;50.894;6.888;2022-07-25T16:19:47;26.60;1.00
4050;DHT22;2039;50.894;6.888;2022-07-25T16:22:12;26.70;1.00
4050;DHT22;2039;50.894;6.888;2022-07-25T16:24:38;26.70;1.00
4050;DHT22;2039;50.894;6.888;2022-07-25T16:27:04;26.70;1.00
4050;DHT22;2039;50.894;6.888;2022-07-25T16:29:30;26.60;1.00
4050;DHT22;2039;50.894;6.888;2022-07-25T16:31:56;26.60;1.00
4050;DHT22;2039;50.894;6.888;2022-07-25T16:34:23;27.00;1.00
4050;DHT22;2039;50.894;6.888;2022-07-25T16:36:49;27.60;1.00
4050;DHT22;2039;50.894;6.888;2022-07-25T16:39:14;28.20;1.00